createdAt,value
2023-02-24T00:02:04.944Z,61370.41
2023-02-24T00:04:38.524Z,61369.47
2023-02-24T00:07:07.760Z,61371.50
2023-02-24T00:09:37.296Z,61367.63
2023-02-24T00:12:09.183Z,61371.50
2023-02-24T00:14:41.234Z,61362.09
2023-02-24T00:17:14.644Z,61367.84
2023-02-24T00:19:46.389Z,61360.38
2023-02-24T00:22:14.970Z,61367.53
2023-02-24T00:24:43.352Z,61362.41
2023-02-24T00:27:12.416Z,61356.50
2023-02-24T00:29:42.274Z,61358.63
2023-02-24T00:32:13.484Z,61347.06
2023-02-24T00:34:44.283Z,61353.41
2023-02-24T00:37:15.484Z,61351.13
2023-02-24T00:39:46.675Z,61350.72
2023-02-24T00:42:15.061Z,61354.88
2023-02-24T00:44:46.715Z,61352.84
2023-02-24T00:47:18.587Z,61352.84
2023-02-24T00:49:50.058Z,61343.22
2023-02-24T00:52:21.150Z,61359.06
2023-02-24T00:54:51.193Z,61360.25
2023-02-24T00:57:21.427Z,61355.41
2023-02-24T00:59:52.817Z,61360.38
2023-02-24T01:02:21.444Z,61355.53
2023-02-24T01:04:51.697Z,61364.53
2023-02-24T01:07:20.099Z,61368.28
2023-02-24T01:09:52.290Z,61358.09
2023-02-24T01:12:38.097Z,61359.84
2023-02-24T01:15:10.093Z,61372.03
2023-02-24T01:17:40.919Z,61370.41
2023-02-24T01:20:18.013Z,61359.19
2023-02-24T01:22:49.528Z,61353.28
2023-02-24T01:25:20.119Z,61362.94
2023-02-24T01:27:48.880Z,61347.91
2023-02-24T01:30:18.715Z,61350.38
2023-02-24T01:32:48.429Z,61347.91
2023-02-24T01:35:18.842Z,61353.50
2023-02-24T01:37:47.213Z,61343.75
2023-02-24T01:40:21.173Z,61351.25
2023-02-24T01:42:50.851Z,61350.06
2023-02-24T01:45:28.828Z,61351.13
2023-02-24T01:48:02.367Z,61356.50
2023-02-24T01:50:33.911Z,61361.88
2023-02-24T01:53:06.507Z,61357.16
2023-02-24T01:55:37.785Z,61352.31
2023-02-24T01:58:14.069Z,61369.78
2023-02-24T02:00:47.106Z,61364.44
2023-02-24T02:03:25.331Z,61358.75
2023-02-24T02:06:01.306Z,61364.53
2023-02-24T02:08:30.734Z,61366.13
2023-02-24T02:11:06.053Z,61362.94
2023-02-24T02:13:38.104Z,61364.00
2023-02-24T02:16:37.401Z,61365.19
2023-02-24T02:19:55.492Z,61387.59
2023-02-24T02:22:54.927Z,61376.31
2023-02-24T02:25:35.164Z,61372.56
2023-02-24T02:28:31.860Z,61371.09
2023-02-24T02:31:58.539Z,61377.53
2023-02-24T02:34:46.794Z,61372.56
2023-02-24T02:37:25.450Z,61377.94
2023-02-24T02:40:02.533Z,61389.09
2023-02-24T02:42:41.098Z,61393.47
2023-02-24T02:45:17.759Z,61388.66
2023-02-24T02:47:53.996Z,61372.56
2023-02-24T02:50:28.966Z,61370.00
2023-02-24T02:53:01.120Z,61379.97
2023-02-24T02:55:37.484Z,61371.09
2023-02-24T02:58:10.655Z,61375.13
2023-02-24T03:00:50.170Z,61382.22
2023-02-24T03:03:20.667Z,61386.94
2023-02-24T03:05:56.950Z,61379.56
2023-02-24T03:08:30.752Z,61370.41
2023-02-24T03:11:02.747Z,61369.88
2023-02-24T03:13:37.847Z,61364.13
2023-02-24T03:16:08.232Z,61355.66
2023-02-24T03:18:42.059Z,61363.03
2023-02-24T03:21:17.650Z,61375.13
2023-02-24T03:23:50.691Z,61376.44
2023-02-24T03:26:28.217Z,61378.19
2023-02-24T03:29:06.637Z,61386.09
2023-02-24T03:31:43.783Z,61408.25
2023-02-24T03:34:17.241Z,61404.22
2023-02-24T03:36:48.137Z,61403.03
2023-02-24T03:39:18.007Z,61396.56
2023-02-24T03:42:02.707Z,61386.53
2023-02-24T03:44:33.867Z,61384.78
2023-02-24T03:47:02.996Z,61392.41
2023-02-24T03:49:32.370Z,61388.22
2023-02-24T03:52:13.946Z,61384.38
2023-02-24T03:55:03.159Z,61380.63
2023-02-24T03:57:54.937Z,61366.13
2023-02-24T04:00:38.599Z,61366.13
2023-02-24T04:03:19.309Z,61376.88
2023-02-24T04:06:02.520Z,61379.56
2023-02-24T04:08:40.871Z,61375.25
2023-02-24T04:11:16.964Z,61373.75
2023-02-24T04:13:50.803Z,61377.94
2023-02-24T04:16:29.117Z,61365.06
2023-02-24T04:19:03.800Z,61368.28
2023-02-24T04:21:35.820Z,61361.88
2023-02-24T04:24:11.627Z,61366.56
2023-02-24T04:26:43.210Z,61351.53
2023-02-24T04:29:20.557Z,61349.63
2023-02-24T04:31:53.341Z,61356.50
2023-02-24T04:34:22.201Z,61356.50
2023-02-24T04:36:51.636Z,61352.75
2023-02-24T04:39:23.519Z,61364.44
2023-02-24T04:41:57.682Z,61352.84
2023-02-24T04:44:28.193Z,61344.69
2023-02-24T04:46:57.184Z,61353.69
2023-02-24T04:49:26.125Z,61339.47
2023-02-24T04:51:57.132Z,61331.28
2023-02-24T04:54:28.154Z,61328.19
2023-02-24T04:56:58.380Z,61327.56
2023-02-24T04:59:29.293Z,61360.78
2023-02-24T05:02:01.468Z,61396.81
2023-02-24T05:04:31.828Z,61374.31
2023-02-24T05:07:00.590Z,61388.88
2023-02-24T05:09:30.396Z,61385.44
2023-02-24T05:12:00.327Z,61397.66
2023-02-24T05:14:31.097Z,61409.03
2023-02-24T05:17:00.523Z,61420.19
2023-02-24T05:19:46.647Z,61421.91
2023-02-24T05:22:17.545Z,61418.69
2023-02-24T05:24:48.238Z,61426.19
2023-02-24T05:27:17.452Z,61395.09
2023-02-24T05:29:46.150Z,61393.38
2023-02-24T05:32:16.761Z,61382.13
2023-02-24T05:34:45.349Z,61335.06
2023-02-24T05:37:16.709Z,61321.66
2023-02-24T05:39:46.569Z,61314.69
2023-02-24T05:42:15.351Z,61332.78
2023-02-24T05:44:43.717Z,61321.13
2023-02-24T05:47:12.175Z,61327.03
2023-02-24T05:49:40.966Z,61333.44
2023-02-24T05:52:11.323Z,61313.59
2023-02-24T05:54:44.051Z,61307.19
2023-02-24T05:57:17.141Z,61299.91
2023-02-24T05:59:45.589Z,61303.94
2023-02-24T06:02:16.916Z,61301.81
2023-02-24T06:04:51.168Z,61311.47
2023-02-24T06:07:24.862Z,61300.84
2023-02-24T06:09:56.590Z,61308.91
2023-02-24T06:12:29.399Z,61313.06
2023-02-24T06:14:58.898Z,61313.50
2023-02-24T06:17:29.214Z,61309.22
2023-02-24T06:19:57.894Z,61312.53
2023-02-24T06:22:28.098Z,61310.13
2023-02-24T06:24:57.340Z,61300.31
2023-02-24T06:27:27.114Z,61301.81
2023-02-24T06:29:56.906Z,61306.50
2023-02-24T06:32:28.042Z,61299.66
2023-02-24T06:34:59.395Z,61308.28
2023-02-24T06:37:28.320Z,61309.06
2023-02-24T06:39:58.367Z,61297.53
2023-02-24T06:42:28.241Z,61290.00
2023-02-24T06:44:56.647Z,61282.13
2023-02-24T06:47:25.385Z,61295.25
2023-02-24T06:49:53.806Z,61299.03
2023-02-24T06:52:22.149Z,61307.72
2023-02-24T06:54:52.454Z,61307.84
2023-02-24T06:57:20.922Z,61301.81
2023-02-24T06:59:50.961Z,61294.72
2023-02-24T07:02:19.362Z,61283.59
2023-02-24T07:04:48.149Z,61276.31
2023-02-24T07:07:17.411Z,61287.88
2023-02-24T07:09:46.086Z,61289.47
2023-02-24T07:12:20.853Z,61295.38
2023-02-24T07:14:50.925Z,61328.72
2023-02-24T07:17:20.042Z,61345.34
2023-02-24T07:19:48.470Z,61333.97
2023-02-24T07:22:17.600Z,61342.44
2023-02-24T07:24:46.722Z,61338.28
2023-02-24T07:27:23.190Z,61348.34
2023-02-24T07:29:53.890Z,61348.56
2023-02-24T07:32:23.414Z,61352.44
2023-02-24T07:34:52.014Z,61369.88
2023-02-24T07:37:21.102Z,61379.00
2023-02-24T07:39:49.663Z,61380.09
2023-02-24T07:42:18.006Z,61373.66
2023-02-24T07:44:49.204Z,61381.16
2023-02-24T07:47:21.445Z,61380.09
2023-02-24T07:49:51.197Z,61377.94
2023-02-24T07:52:19.543Z,61378.88
2023-02-24T07:54:49.806Z,61365.72
2023-02-24T07:57:18.994Z,61352.75
2023-02-24T07:59:48.175Z,61361.97
2023-02-24T08:02:18.642Z,61365.72
2023-02-24T08:04:51.532Z,61367.44
2023-02-24T08:07:24.986Z,61368.94
2023-02-24T08:10:24.267Z,61367.63
2023-02-24T08:12:55.902Z,61386.63
2023-02-24T08:15:26.800Z,61381.16
2023-02-24T08:18:00.551Z,61384.59
2023-02-24T08:20:36.243Z,61380.50
2023-02-24T08:23:08.641Z,61382.13
2023-02-24T08:25:37.117Z,61385.88
2023-02-24T08:28:11.708Z,61382.22
2023-02-24T08:30:46.103Z,61388.13
2023-02-24T08:33:22.068Z,61394.88
2023-02-24T08:36:01.088Z,61392.53
2023-02-24T08:38:42.002Z,61385.66
2023-02-24T08:41:17.983Z,61402.06
2023-02-24T08:43:48.118Z,61409.69
2023-02-24T08:46:21.150Z,61429.41
2023-02-24T08:49:01.337Z,61431.84
2023-02-24T08:51:35.092Z,61439.63
2023-02-24T08:54:10.952Z,61435.44
2023-02-24T08:56:43.832Z,61424.72
2023-02-24T08:59:29.209Z,61427.28
2023-02-24T09:02:18.555Z,61422.34
2023-02-24T09:04:51.427Z,61433.47
2023-02-24T09:07:22.679Z,61439.09
2023-02-24T09:09:56.268Z,61426.19
2023-02-24T09:12:29.190Z,61440.44
2023-02-24T09:15:01.223Z,61435.88
2023-02-24T09:17:41.202Z,61451.53
2023-02-24T09:20:32.874Z,61446.59
2023-02-24T09:23:03.695Z,61455.72
2023-02-24T09:25:44.783Z,61459.47
2023-02-24T09:28:18.170Z,61449.16
2023-02-24T09:30:53.508Z,61455.16
2023-02-24T09:33:29.233Z,61446.59
2023-02-24T09:36:10.620Z,61425.78
2023-02-24T09:38:58.758Z,61451.53
2023-02-24T09:41:34.586Z,61469.53
2023-02-24T09:44:07.822Z,61479.84
2023-02-24T09:46:53.985Z,61481.47
2023-02-24T09:49:25.799Z,61479.72
2023-02-24T09:52:00.646Z,61498.09
2023-02-24T09:54:35.617Z,61503.50
2023-02-24T09:57:16.791Z,61493.50
2023-02-24T10:00:22.133Z,61503.91
2023-02-24T10:03:00.247Z,61505.22
2023-02-24T10:05:38.865Z,61493.81
2023-02-24T10:08:17.869Z,61491.66
2023-02-24T10:11:00.949Z,61492.19
2023-02-24T10:13:33.306Z,61487.50
2023-02-24T10:16:07.082Z,61480.09
2023-02-24T10:18:44.703Z,61509.94
2023-02-24T10:21:30.666Z,61509.38
2023-02-24T10:24:15.468Z,61538.28
2023-02-24T10:27:00.390Z,61553.44
2023-02-24T10:29:47.962Z,61571.69
2023-02-24T10:32:24.693Z,61596.50
2023-02-24T10:34:54.011Z,61604.56
2023-02-24T10:37:28.930Z,61635.63
2023-02-24T10:40:09.773Z,61730.28
2023-02-24T10:42:45.942Z,61757.50
2023-02-24T10:45:23.682Z,61693.69
2023-02-24T10:47:57.755Z,61698.84
2023-02-24T10:50:32.611Z,61650.91
2023-02-24T10:53:26.726Z,61648.00
2023-02-24T10:56:15.380Z,61594.78
2023-02-24T10:58:56.923Z,61604.88
2023-02-24T11:01:43.815Z,61622.31
2023-02-24T11:04:43.905Z,61613.06
2023-02-24T11:07:24.744Z,61613.59
2023-02-24T11:10:14.035Z,61643.03
2023-02-24T11:13:10.396Z,61671.00
2023-02-24T11:16:01.311Z,61701.13
2023-02-24T11:18:31.760Z,61680.81
2023-02-24T11:21:03.801Z,61670.03
2023-02-24T11:23:43.170Z,61673.91
2023-02-24T11:26:18.245Z,61690.25
2023-02-24T11:29:01.087Z,61658.63
2023-02-24T11:31:49.077Z,61690.34
2023-02-24T11:34:27.640Z,61685.31
2023-02-24T11:37:06.749Z,61661.41
2023-02-24T11:39:53.163Z,61666.25
2023-02-24T11:42:27.351Z,61636.03
2023-02-24T11:45:03.882Z,61642.59
2023-02-24T11:47:40.013Z,61659.16
2023-02-24T11:50:29.184Z,61633.06
2023-02-24T11:52:59.984Z,61644.44
2023-02-24T11:55:38.870Z,61653.25
2023-02-24T11:58:21.360Z,61658.06
2023-02-24T12:00:58.235Z,61630.66
2023-02-24T12:03:34.359Z,61639.81
2023-02-24T12:06:16.486Z,61651.84
2023-02-24T12:08:50.614Z,61650.03
2023-02-24T12:11:32.963Z,61626.38
2023-02-24T12:14:17.042Z,61643.78
2023-02-24T12:16:55.620Z,61637.88
2023-02-24T12:19:33.534Z,61648.00
2023-02-24T12:22:09.947Z,61643.16
2023-02-24T12:24:39.237Z,61638.84
2023-02-24T12:27:21.972Z,61634.53
2023-02-24T12:30:22.906Z,61608.09
2023-02-24T12:33:08.546Z,61610.38
2023-02-24T12:35:47.932Z,61619.25
2023-02-24T12:38:35.561Z,61603.81
2023-02-24T12:41:25.173Z,61588.34
2023-02-24T12:44:00.180Z,61558.16
2023-02-24T12:46:36.595Z,61550.63
2023-02-24T12:49:48.178Z,61577.47
2023-02-24T12:52:25.932Z,61542.13
2023-02-24T12:55:06.575Z,61564.72
2023-02-24T12:57:44.962Z,61591.78
2023-02-24T13:00:27.468Z,61560.09
2023-02-24T13:03:02.771Z,61580.81
2023-02-24T13:05:41.061Z,61567.81
2023-02-24T13:08:24.496Z,61586.50
2023-02-24T13:11:05.390Z,61566.97
2023-02-24T13:13:41.440Z,61573.94
2023-02-24T13:16:13.475Z,61579.75
2023-02-24T13:18:42.200Z,61581.34
2023-02-24T13:21:23.352Z,61581.47
2023-02-24T13:23:58.339Z,61569.97
2023-02-24T13:26:29.172Z,61543.22
2023-02-24T13:29:03.346Z,61562.56
2023-02-24T13:31:44.734Z,61539.16
2023-02-24T13:34:31.732Z,61535.69
2023-02-24T13:37:02.677Z,61531.41
2023-02-24T13:39:36.894Z,61510.03
2023-02-24T13:42:18.239Z,61508.31
2023-02-24T13:44:53.749Z,61525.50
2023-02-24T13:47:47.627Z,61548.59
2023-02-24T13:50:25.603Z,61539.03
2023-02-24T13:53:33.338Z,61545.47
2023-02-24T13:56:21.413Z,61543.53
2023-02-24T13:59:21.383Z,61535.28
2023-02-24T14:01:52.702Z,61534.75
2023-02-24T14:04:27.306Z,61540.44
2023-02-24T14:07:01.472Z,61503.50
2023-02-24T14:09:36.209Z,61514.88
2023-02-24T14:12:09.883Z,61513.16
2023-02-24T14:14:38.487Z,61506.59
2023-02-24T14:17:06.878Z,61497.69
2023-02-24T14:19:35.218Z,61509.72
2023-02-24T14:22:04.019Z,61510.59
2023-02-24T14:24:33.877Z,61484.81
2023-02-24T14:27:03.909Z,61486.41
2023-02-24T14:29:43.866Z,61480.41
2023-02-24T14:32:21.958Z,61469.78
2023-02-24T14:34:51.247Z,61481.34
2023-02-24T14:37:26.033Z,61467.63
2023-02-24T14:39:58.347Z,61473.53
2023-02-24T14:42:28.193Z,61467.94
2023-02-24T14:44:59.912Z,61466.44
2023-02-24T14:47:32.151Z,61465.91
2023-02-24T14:50:02.687Z,61463.75
2023-02-24T14:52:37.278Z,61441.00
2023-02-24T14:55:13.624Z,61444.31
2023-02-24T14:57:50.536Z,61434.38
2023-02-24T15:00:24.307Z,61449.69
2023-02-24T15:03:02.197Z,61451.97
2023-02-24T15:05:30.625Z,61427.41
2023-02-24T15:08:00.613Z,61445.00
2023-02-24T15:10:32.504Z,61449.16
2023-02-24T15:13:09.106Z,61445.53
2023-02-24T15:15:39.628Z,61437.59
2023-02-24T15:18:15.669Z,61449.69
2023-02-24T15:20:44.284Z,61439.63
2023-02-24T15:23:28.108Z,61430.91
2023-02-24T15:25:57.849Z,61438.44
2023-02-24T15:28:31.087Z,61421.25
2023-02-24T15:31:08.520Z,61410.66
2023-02-24T15:33:41.629Z,61449.16
2023-02-24T15:36:19.569Z,61422.34
2023-02-24T15:38:53.132Z,61412.03
2023-02-24T15:41:23.373Z,61406.91
2023-02-24T15:43:56.126Z,61419.47
2023-02-24T15:46:30.500Z,61453.66
2023-02-24T15:49:03.165Z,61421.25
2023-02-24T15:51:38.648Z,61409.16
2023-02-24T15:54:12.918Z,61400.47
2023-02-24T15:56:43.947Z,61432.63
2023-02-24T15:59:16.465Z,61417.63
2023-02-24T16:01:45.051Z,61419.53
2023-02-24T16:04:13.509Z,61412.25
2023-02-24T16:06:54.442Z,61399.50
2023-02-24T16:09:33.541Z,61390.69
2023-02-24T16:12:06.816Z,61380.22
2023-02-24T16:14:35.569Z,61412.25
2023-02-24T16:17:09.063Z,61407.97
2023-02-24T16:19:38.155Z,61374.31
2023-02-24T16:22:06.493Z,61362.63
2023-02-24T16:24:35.223Z,61369.47
2023-02-24T16:27:06.205Z,61363.59
2023-02-24T16:29:34.596Z,61348.16
2023-02-24T16:32:03.285Z,61354.88
2023-02-24T16:34:31.933Z,61353.28
2023-02-24T16:37:00.386Z,61346.41
2023-02-24T16:39:29.459Z,61329.69
2023-02-24T16:41:59.367Z,61341.38
2023-02-24T16:44:29.097Z,61321.78
2023-02-24T16:46:57.477Z,61302.88
2023-02-24T16:49:25.846Z,61295.91
2023-02-24T16:51:54.212Z,61281.34
2023-02-24T16:54:23.458Z,61277.03
2023-02-24T16:56:52.181Z,61277.81
2023-02-24T16:59:20.658Z,61265.38
2023-02-24T17:01:50.778Z,61257.47
2023-02-24T17:04:19.349Z,61258.00
2023-02-24T17:06:48.165Z,61260.88
2023-02-24T17:09:18.020Z,61250.38
2023-02-24T17:11:46.786Z,61240.31
2023-02-24T17:14:18.753Z,61218.25
2023-02-24T17:16:49.074Z,61212.91
2023-02-24T17:19:17.790Z,61203.28
2023-02-24T17:21:46.671Z,61210.53
2023-02-24T17:24:18.211Z,61212.25
2023-02-24T17:26:47.352Z,61234.34
2023-02-24T17:29:17.762Z,61220.81
2023-02-24T17:31:46.588Z,61233.91
2023-02-24T17:34:16.502Z,61213.56
2023-02-24T17:36:44.803Z,61206.88
2023-02-24T17:39:14.051Z,61201.25
2023-02-24T17:41:42.468Z,61207.56
2023-02-24T17:44:10.925Z,61200.72
2023-02-24T17:46:39.404Z,61191.50
2023-02-24T17:49:07.948Z,61204.88
2023-02-24T17:51:37.725Z,61205.81
2023-02-24T17:54:06.849Z,61195.13
2023-02-24T17:56:35.361Z,61180.38
2023-02-24T17:59:03.740Z,61173.84
2023-02-24T18:01:32.093Z,61199.00
2023-02-24T18:04:00.461Z,61175.03
2023-02-24T18:06:28.926Z,61196.00
2023-02-24T18:08:58.666Z,61155.75
2023-02-24T18:11:27.043Z,61170.09
2023-02-24T18:14:00.373Z,61149.34
2023-02-24T18:16:32.212Z,61179.31
2023-02-24T18:19:00.638Z,61163.25
2023-02-24T18:21:29.006Z,61196.44
2023-02-24T18:23:58.840Z,61169.03
2023-02-24T18:26:27.354Z,61185.91
2023-02-24T18:28:56.611Z,61165.81
2023-02-24T18:31:27.725Z,61133.28
2023-02-24T18:33:58.061Z,61141.84
2023-02-24T18:36:27.485Z,61146.56
2023-02-24T18:38:59.180Z,61148.69
2023-02-24T18:41:27.965Z,61142.56
2023-02-24T18:43:59.274Z,61170.75
2023-02-24T18:46:28.722Z,61152.31
2023-02-24T18:48:57.690Z,61143.88
2023-02-24T18:51:29.979Z,61134.66
2023-02-24T18:54:01.560Z,61176.25
2023-02-24T18:56:32.365Z,61145.50
2023-02-24T18:59:02.360Z,61149.09
2023-02-24T19:01:34.375Z,61143.47
2023-02-24T19:04:04.535Z,61126.47
2023-02-24T19:06:33.994Z,61136.09
2023-02-24T19:09:07.308Z,61153.22
2023-02-24T19:11:36.196Z,61167.41
2023-02-24T19:14:05.345Z,61157.91
2023-02-24T19:16:34.109Z,61147.22
2023-02-24T19:19:02.995Z,61128.38
2023-02-24T19:21:33.265Z,61118.75
2023-02-24T19:24:03.917Z,61171.16
2023-02-24T19:26:32.391Z,61124.72
2023-02-24T19:29:01.076Z,61134.91
2023-02-24T19:31:32.614Z,61123.25
2023-02-24T19:34:03.918Z,61126.75
2023-02-24T19:36:35.277Z,61135.03
2023-02-24T19:39:06.182Z,61168.59
2023-02-24T19:41:34.551Z,61149.47
2023-02-24T19:44:03.072Z,61138.66
2023-02-24T19:46:34.064Z,61161.13
2023-02-24T19:49:03.184Z,61142.28
2023-02-24T19:51:32.137Z,61142.38
2023-02-24T19:54:06.007Z,61144.41
2023-02-24T19:56:36.955Z,61160.03
2023-02-24T19:59:08.512Z,61140.13
2023-02-24T20:01:36.963Z,61172.25
2023-02-24T20:04:06.007Z,61160.16
2023-02-24T20:06:37.111Z,61182.41
2023-02-24T20:09:09.754Z,61157.78
2023-02-24T20:11:39.522Z,61145.50
2023-02-24T20:14:08.912Z,61156.72
2023-02-24T20:16:39.106Z,61140.13
2023-02-24T20:19:12.515Z,61131.56
2023-02-24T20:21:41.836Z,61127.19
2023-02-24T20:24:15.114Z,61139.81
2023-02-24T20:26:47.050Z,61154.16
2023-02-24T20:29:24.143Z,61152.03
2023-02-24T20:31:53.179Z,61140.53
2023-02-24T20:34:24.390Z,61160.47
2023-02-24T20:36:52.979Z,61136.50
2023-02-24T20:39:26.873Z,61133.72
2023-02-24T20:41:55.356Z,61147.22
2023-02-24T20:44:24.606Z,61126.88
2023-02-24T20:46:55.270Z,61156.19
2023-02-24T20:49:24.161Z,61141.19
2023-02-24T20:51:52.590Z,61149.34
2023-02-24T20:54:23.942Z,61151.59
2023-02-24T20:56:52.386Z,61128.38
2023-02-24T20:59:24.173Z,61141.19
2023-02-24T21:01:52.944Z,61138.53
2023-02-24T21:04:22.779Z,61131.56
2023-02-24T21:06:52.138Z,61115.50
2023-02-24T21:09:21.981Z,61138.41
2023-02-24T21:11:50.452Z,61144.84
2023-02-24T21:14:19.642Z,61134.38
2023-02-24T21:16:48.018Z,61125.16
2023-02-24T21:19:17.888Z,61126.22
2023-02-24T21:21:46.461Z,61105.38
2023-02-24T21:24:14.879Z,61109.75
2023-02-24T21:26:44.744Z,61124.19
2023-02-24T21:29:13.310Z,61123.28
2023-02-24T21:31:41.888Z,61152.56
2023-02-24T21:34:12.128Z,61138.41
2023-02-24T21:36:40.514Z,61131.56
2023-02-24T21:39:08.940Z,61123.00
2023-02-24T21:41:37.378Z,61111.50
2023-02-24T21:44:07.237Z,61102.28
2023-02-24T21:46:36.116Z,61094.66
2023-02-24T21:49:04.828Z,61115.94
2023-02-24T21:51:33.521Z,61104.84
2023-02-24T21:54:02.005Z,61126.34
2023-02-24T21:56:31.525Z,61108.03
2023-02-24T21:59:02.552Z,61097.88
2023-02-24T22:01:35.237Z,61110.84
2023-02-24T22:04:05.899Z,61138.41
2023-02-24T22:06:37.199Z,61138.00
2023-02-24T22:09:08.690Z,61098.66
2023-02-24T22:11:41.741Z,61093.06
2023-02-24T22:14:11.791Z,61100.78
2023-02-24T22:16:42.148Z,61112.97
2023-02-24T22:19:11.045Z,61108.16
2023-02-24T22:21:42.295Z,61114.69
2023-02-24T22:24:14.987Z,61098.41
2023-02-24T22:26:44.326Z,61087.06
2023-02-24T22:29:13.193Z,61075.13
2023-02-24T22:31:44.060Z,61096.81
2023-02-24T22:34:14.172Z,61070.59
2023-02-24T22:36:42.758Z,61077.44
2023-02-24T22:39:12.764Z,61070.59
2023-02-24T22:41:41.130Z,61079.81
2023-02-24T22:44:11.053Z,61047.06
2023-02-24T22:46:40.218Z,61063.13
2023-02-24T22:49:09.964Z,61062.16
2023-02-24T22:51:38.519Z,61052.44
2023-02-24T22:54:07.637Z,61066.34
2023-02-24T22:56:37.944Z,61058.84
2023-02-24T22:59:06.604Z,61057.78
2023-02-24T23:01:37.719Z,61058.84
2023-02-24T23:04:12.852Z,61035.84
2023-02-24T23:06:41.723Z,61033.19
2023-02-24T23:09:10.771Z,61074.47
2023-02-24T23:11:41.974Z,61057.78
2023-02-24T23:14:13.947Z,61052.31
2023-02-24T23:16:46.534Z,61029.97
2023-02-24T23:19:18.530Z,61027.84
2023-02-24T23:21:49.751Z,61007.78
2023-02-24T23:24:19.614Z,61043.44
2023-02-24T23:26:53.827Z,61003.25
2023-02-24T23:29:24.162Z,61010.84
2023-02-24T23:31:53.435Z,61016.06
2023-02-24T23:34:23.336Z,61032.09
2023-02-24T23:36:51.757Z,61016.59
2023-02-24T23:39:23.908Z,61010.31
2023-02-24T23:41:57.545Z,61016.84
2023-02-24T23:44:26.466Z,61019.28
2023-02-24T23:46:55.022Z,61031.69
2023-02-24T23:49:29.407Z,61046.84
2023-02-24T23:52:04.763Z,61039.47
2023-02-24T23:54:33.240Z,61046.41
2023-02-24T23:57:01.748Z,61033.19
2023-02-24T23:59:30.223Z,61048.16
